Adelia — 5BNZ4 — position and weather

sailwx.info

Track history (hours):
 
Tides and Currents Weather Stations Pressure Air Temp Water Temp Dewpoint Dewpoint Depression Visibility Wind Speed Wind Dir Waves Ship Positions

Adelia

Last reported at 2018-May-24 22:59 UTC. Time now 2018-May-24 23:14 UTC.
Position N 36°09' W 005°23'.

Length 91 m; draft 6.8 m.

Type: Tanker. MMSI: 209003000.

Date/timePositionNaut miles runAvg speedWind from/ knotsBaromVisibWave heightAir tempDewpointWater temp
2018-May-24 22:59N 36°09' W 005°23'0 0.0
2018-May-24 22:11N 36°09' W 005°23'0 1.3
2018-May-24 22:00N 36°09' W 005°23'1 0.1
2018-May-24 02:42N 36°08' W 005°22'0 0.3
2018-May-24 02:30N 36°08' W 005°22'1 2.6
2018-May-24 02:00N 36°07' W 005°22'0 0.0
2018-May-23 15:49N 36°07' W 005°22'1 0.2
2018-May-23 10:10N 36°07' W 005°22'1 4.7
2018-May-23 10:00N 36°08' W 005°22'0 0.0
2018-May-23 02:03N 36°08' W 005°23'0 0.1
2018-May-23 02:00N 36°08' W 005°23'2 3.6
2018-May-23 01:30N 36°08' W 005°25'2 0.0
2018-May-21 14:28N 36°08' W 005°23'0 0.8
2018-May-21 13:56N 36°08' W 005°23'1 2.0
2018-May-21 13:30N 36°09' W 005°23'0 0.3
2018-May-21 13:00N 36°09' W 005°23'1 0.2
2018-May-21 04:44N 36°08' W 005°22'0 0.2
2018-May-21 04:26N 36°08' W 005°22'1 2.5
2018-May-21 04:00N 36°09' W 005°23'1 0.5
2018-May-21 02:32N 36°09' W 005°22'0 0.1
2018-May-21 02:26N 36°09' W 005°22'0 0.0
2018-May-21 00:02N 36°09' W 005°22'0 0.0
2018-May-20 23:38N 36°09' W 005°22'0 0.0
2018-May-20 22:05N 36°09' W 005°22'0 0.1
2018-May-20 21:56N 36°09' W 005°22'1 2.5
2018-May-20 21:30N 36°08' W 005°23'0 0.0
2018-May-20 15:32N 36°08' W 005°23'0 0.1
2018-May-20 13:24N 36°08' W 005°23'0 1.0
2018-May-20 12:58N 36°08' W 005°23'0 0.8
2018-May-20 12:31N 36°09' W 005°23'0 0.1
2018-May-20 11:33N 36°09' W 005°23'0 0.0
2018-May-20 04:49N 36°09' W 005°23'0 0.2
2018-May-20 04:29N 36°09' W 005°23'2 3.8
2018-May-20 03:59N 36°07' W 005°22'2 5.1
2018-May-20 03:30N 36°07' W 005°19'1 1.7
2018-May-20 02:59N 36°07' W 005°18'0 0.1
2018-May-20 02:29N 36°07' W 005°18'0 0.1
2018-May-20 01:59N 36°07' W 005°19'0 0.0
2018-May-20 01:20N 36°07' W 005°18'0 0.0
2018-May-20 00:58N 36°07' W 005°18'2 4.1
2018-May-20 00:30N 36°06' W 005°20'3 6.5
2018-May-20 00:00N 36°08' W 005°23'1 0.2
2018-May-19 18:15N 36°09' W 005°23'0 0.1
2018-May-19 18:00N 36°09' W 005°23'2 4.6
2018-May-19 17:30N 36°07' W 005°22'0 0.7
2018-May-19 16:57N 36°06' W 005°22'0 0.3
2018-May-19 16:21N 36°06' W 005°22'3 0.3
2018-May-19 06:01N 36°09' W 005°23'0 1.4
2018-May-19 06:01N 36°09' W 005°23'3 5.4
2018-May-19 05:30N 36°07' W 005°22'0 0.0
2018-May-19 01:44N 36°07' W 005°22'0 0.0
2018-May-18 21:22N 36°07' W 005°22'0 0.0
2018-May-18 21:00N 36°07' W 005°22'2 3.0
2018-May-18 20:30N 36°08' W 005°22'1 1.9
2018-May-18 19:51N 36°09' W 005°23'0 0.1
2018-May-18 18:15N 36°09' W 005°23'0 0.0
2018-May-18 17:03N 36°09' W 005°23'0 0.1
2018-May-18 16:52N 36°09' W 005°23'2 3.2
2018-May-18 16:17N 36°08' W 005°22'0 0.0
2018-May-18 11:24N 36°07' W 005°22'0 1.1
2018-May-18 10:57N 36°08' W 005°22'2 3.3
2018-May-18 10:29N 36°09' W 005°23'0 0.0
2018-May-18 09:58N 36°09' W 005°23'0 0.0
2018-May-18 09:25N 36°09' W 005°23'0 0.0
2018-May-18 05:49N 36°09' W 005°23'0 0.1
2018-May-18 05:19N 36°09' W 005°23'0 0.0
2018-May-18 04:55N 36°09' W 005°23'0 0.0
2018-May-18 04:25N 36°09' W 005°23'0 0.1
2018-May-18 03:55N 36°09' W 005°23'0 0.0
2018-May-18 03:13N 36°09' W 005°23'0 0.1
2018-May-18 02:55N 36°09' W 005°23'0 0.0
2018-May-18 02:25N 36°09' W 005°23'0 0.0
2018-May-18 01:55N 36°09' W 005°23'0 0.0
2018-May-18 01:25N 36°09' W 005°23'0 0.1
2018-May-18 00:49N 36°09' W 005°23'0 0.1
2018-May-18 00:25N 36°09' W 005°23'0 0.0
2018-May-17 23:55N 36°09' W 005°23'0 0.8
2018-May-17 23:30N 36°09' W 005°23'2 4.4
2018-May-17 23:00N 36°08' W 005°26'0 0.0
2018-May-17 07:28N 36°08' W 005°26'1 3.1
2018-May-17 07:00N 36°09' W 005°24'2 3.6
2018-May-17 06:30N 36°09' W 005°22'0 0.0
2018-May-16 23:27N 36°09' W 005°22'0 0.3
2018-May-16 22:59N 36°09' W 005°22'2 3.1
2018-May-16 22:30N 36°07' W 005°22'0 0.0
2018-May-16 14:12N 36°07' W 005°22'0 0.3
2018-May-16 14:01N 36°07' W 005°22'2 3.2
2018-May-16 13:31N 36°09' W 005°23'1 0.1
2018-May-16 00:19N 36°07' W 005°23'0 0.0
2018-May-15 23:57N 36°07' W 005°23'2 0.2
2018-May-15 15:32N 36°09' W 005°23'0 0.5
2018-May-15 15:26N 36°09' W 005°23'1 1.7
2018-May-15 15:00N 36°08' W 005°22'  
Track history (hours):
 
Tides and Currents Weather Stations Pressure Air Temp Water Temp Dewpoint Dewpoint Depression Visibility Wind Speed Wind Dir Waves Ship Positions

Adelia

Last reported at 2018-May-24 22:59 UTC. Time now 2018-May-24 23:14 UTC.
Position N 36°09' W 005°23'.

Length 91 m; draft 6.8 m.

Type: Tanker. MMSI: 209003000.

Date/timePositionNaut miles runAvg speedWind from/ knotsBaromVisibWave heightAir tempDewpointWater temp
2018-May-24 22:59N 36°09' W 005°23'0 0.0
2018-May-24 22:11N 36°09' W 005°23'0 1.3
2018-May-24 22:00N 36°09' W 005°23'1 0.1
2018-May-24 02:42N 36°08' W 005°22'0 0.3
2018-May-24 02:30N 36°08' W 005°22'1 2.6
2018-May-24 02:00N 36°07' W 005°22'0 0.0
2018-May-23 15:49N 36°07' W 005°22'1 0.2
2018-May-23 10:10N 36°07' W 005°22'1 4.7
2018-May-23 10:00N 36°08' W 005°22'0 0.0
2018-May-23 02:03N 36°08' W 005°23'0 0.1
2018-May-23 02:00N 36°08' W 005°23'2 3.6
2018-May-23 01:30N 36°08' W 005°25'2 0.0
2018-May-21 14:28N 36°08' W 005°23'0 0.8
2018-May-21 13:56N 36°08' W 005°23'1 2.0
2018-May-21 13:30N 36°09' W 005°23'0 0.3
2018-May-21 13:00N 36°09' W 005°23'1 0.2
2018-May-21 04:44N 36°08' W 005°22'0 0.2
2018-May-21 04:26N 36°08' W 005°22'1 2.5
2018-May-21 04:00N 36°09' W 005°23'1 0.5
2018-May-21 02:32N 36°09' W 005°22'0 0.1
2018-May-21 02:26N 36°09' W 005°22'0 0.0
2018-May-21 00:02N 36°09' W 005°22'0 0.0
2018-May-20 23:38N 36°09' W 005°22'0 0.0
2018-May-20 22:05N 36°09' W 005°22'0 0.1
2018-May-20 21:56N 36°09' W 005°22'1 2.5
2018-May-20 21:30N 36°08' W 005°23'0 0.0
2018-May-20 15:32N 36°08' W 005°23'0 0.1
2018-May-20 13:24N 36°08' W 005°23'0 1.0
2018-May-20 12:58N 36°08' W 005°23'0 0.8
2018-May-20 12:31N 36°09' W 005°23'0 0.1
2018-May-20 11:33N 36°09' W 005°23'0 0.0
2018-May-20 04:49N 36°09' W 005°23'0 0.2
2018-May-20 04:29N 36°09' W 005°23'2 3.8
2018-May-20 03:59N 36°07' W 005°22'2 5.1
2018-May-20 03:30N 36°07' W 005°19'1 1.7
2018-May-20 02:59N 36°07' W 005°18'0 0.1
2018-May-20 02:29N 36°07' W 005°18'0 0.1
2018-May-20 01:59N 36°07' W 005°19'0 0.0
2018-May-20 01:20N 36°07' W 005°18'0 0.0
2018-May-20 00:58N 36°07' W 005°18'2 4.1
2018-May-20 00:30N 36°06' W 005°20'3 6.5
2018-May-20 00:00N 36°08' W 005°23'1 0.2
2018-May-19 18:15N 36°09' W 005°23'0 0.1
2018-May-19 18:00N 36°09' W 005°23'2 4.6
2018-May-19 17:30N 36°07' W 005°22'0 0.7
2018-May-19 16:57N 36°06' W 005°22'0 0.3
2018-May-19 16:21N 36°06' W 005°22'3 0.3
2018-May-19 06:01N 36°09' W 005°23'0 1.4
2018-May-19 06:01N 36°09' W 005°23'3 5.4
2018-May-19 05:30N 36°07' W 005°22'0 0.0
2018-May-19 01:44N 36°07' W 005°22'0 0.0
2018-May-18 21:22N 36°07' W 005°22'0 0.0
2018-May-18 21:00N 36°07' W 005°22'2 3.0
2018-May-18 20:30N 36°08' W 005°22'1 1.9
2018-May-18 19:51N 36°09' W 005°23'0 0.1
2018-May-18 18:15N 36°09' W 005°23'0 0.0
2018-May-18 17:03N 36°09' W 005°23'0 0.1
2018-May-18 16:52N 36°09' W 005°23'2 3.2
2018-May-18 16:17N 36°08' W 005°22'0 0.0
2018-May-18 11:24N 36°07' W 005°22'0 1.1
2018-May-18 10:57N 36°08' W 005°22'2 3.3
2018-May-18 10:29N 36°09' W 005°23'0 0.0
2018-May-18 09:58N 36°09' W 005°23'0 0.0
2018-May-18 09:25N 36°09' W 005°23'0 0.0
2018-May-18 05:49N 36°09' W 005°23'0 0.1
2018-May-18 05:19N 36°09' W 005°23'0 0.0
2018-May-18 04:55N 36°09' W 005°23'0 0.0
2018-May-18 04:25N 36°09' W 005°23'0 0.1
2018-May-18 03:55N 36°09' W 005°23'0 0.0
2018-May-18 03:13N 36°09' W 005°23'0 0.1
2018-May-18 02:55N 36°09' W 005°23'0 0.0
2018-May-18 02:25N 36°09' W 005°23'0 0.0
2018-May-18 01:55N 36°09' W 005°23'0 0.0
2018-May-18 01:25N 36°09' W 005°23'0 0.1
2018-May-18 00:49N 36°09' W 005°23'0 0.1
2018-May-18 00:25N 36°09' W 005°23'0 0.0
2018-May-17 23:55N 36°09' W 005°23'0 0.8
2018-May-17 23:30N 36°09' W 005°23'2 4.4
2018-May-17 23:00N 36°08' W 005°26'0 0.0
2018-May-17 07:28N 36°08' W 005°26'1 3.1
2018-May-17 07:00N 36°09' W 005°24'2 3.6
2018-May-17 06:30N 36°09' W 005°22'0 0.0
2018-May-16 23:27N 36°09' W 005°22'0 0.3
2018-May-16 22:59N 36°09' W 005°22'2 3.1
2018-May-16 22:30N 36°07' W 005°22'0 0.0
2018-May-16 14:12N 36°07' W 005°22'0 0.3
2018-May-16 14:01N 36°07' W 005°22'2 3.2
2018-May-16 13:31N 36°09' W 005°23'1 0.1
2018-May-16 00:19N 36°07' W 005°23'0 0.0
2018-May-15 23:57N 36°07' W 005°23'2 0.2
2018-May-15 15:32N 36°09' W 005°23'0 0.5
2018-May-15 15:26N 36°09' W 005°23'1 1.7
2018-May-15 15:00N 36°08' W 005°22'  

Dump ship's entire track history